Terminal Aerodrome Forecast
Issued by NWS Cleveland, OH

Home | Current Version | Previous Version | Graphics & Text | Print | Product List | Glossary Off
Versions: 1 2 3 4 5 6 7 8 9 10 11 12 13 14

000
FTUS41 KCLE 011134
TAFCAK
TAF
KCAK 011134Z 0112/0212 28006KT P6SM SKC
     FM011700 29010G18KT P6SM SCT060
     FM020000 24005KT P6SM FEW060=

USA.gov is the U.S. government's official web portal to all federal, state and local government web resources and services.